Time;durP1;ratioP1;P1;durP2;ratioP2;P2;SDS_P1;SDS_P2;PMS_P1;PMS_P2;Temp;Humidity;BMP_temperature;BMP_pressure;BME280_temperature;BME280_humidity;BME280_pressure;Samples;Min_cycle;Max_cycle;Signal;HPM_P1;HPM_P2
2021/07/17 00:01:49;;;;;;;0.70;0.60;;;;;;;18.49;100.00;46376.47;5026133;28;20436;-74
2021/07/17 00:04:16;;;;;;;0.70;0.70;;;;;;;18.54;100.00;46711.56;5008539;28;20467;-74
2021/07/17 00:06:49;;;;;;;0.70;0.60;;;;;;;18.50;100.00;47371.44;5025899;28;20478;-73
2021/07/17 00:09:16;;;;;;;0.80;0.70;;;;;;;18.52;100.00;47041.72;5025741;28;20472;-73
2021/07/17 00:11:44;;;;;;;0.70;0.70;;;;;;;18.53;100.00;47042.13;5044603;28;20453;-73
2021/07/17 00:14:11;;;;;;;0.70;0.70;;;;;;;18.54;100.00;48037.38;5045556;28;20440;-73
2021/07/17 00:16:38;;;;;;;0.70;0.60;;;;;;;18.54;100.00;47374.81;5049397;28;20438;-74
2021/07/17 00:19:05;;;;;;;0.70;0.60;;;;;;;18.51;100.00;48034.78;5048380;28;20431;-73
2021/07/17 00:21:32;;;;;;;0.70;0.60;;;;;;;18.52;100.00;47704.59;5047866;28;21012;-73
2021/07/17 00:24:01;;;;;;;0.70;0.60;;;;;;;18.52;100.00;47704.16;5048596;28;20860;-74
2021/07/17 00:26:28;;;;;;;0.70;0.70;;;;;;;18.52;100.00;48035.63;5050014;28;20960;-74
2021/07/17 00:28:56;;;;;;;0.70;0.60;;;;;;;18.50;100.00;49360.16;5049154;28;20422;-73
2021/07/17 00:31:24;;;;;;;0.70;0.60;;;;;;;18.48;100.00;50021.69;5034227;28;20469;-73
2021/07/17 00:33:51;;;;;;;0.70;0.60;;;;;;;18.42;100.00;51011.44;5028491;28;20576;-73
2021/07/17 00:36:19;;;;;;;0.70;0.60;;;;;;;18.38;100.00;51671.31;5030025;28;20432;-74
2021/07/17 00:38:46;;;;;;;0.80;0.70;;;;;;;18.39;100.00;52668.22;5030113;28;20884;-73
2021/07/17 00:41:14;;;;;;;0.70;0.70;;;;;;;18.39;100.00;53663.56;5040950;28;20883;-73
2021/07/17 00:43:41;;;;;;;0.70;0.70;;;;;;;18.31;100.00;54320.88;5032504;28;20502;-73
2021/07/17 00:46:08;;;;;;;0.70;0.60;;;;;;;18.31;100.00;55317.06;5031582;28;20447;-74
2021/07/17 00:48:38;;;;;;;0.70;0.60;;;;;;;18.34;100.00;55652.16;5047868;28;20455;-73
2021/07/17 00:51:05;;;;;;;0.70;0.63;;;;;;;18.40;100.00;55989.25;5039910;28;21037;-73
2021/07/17 00:53:32;;;;;;;0.70;0.60;;;;;;;18.38;100.00;56319.53;5031687;28;20990;-73
2021/07/17 00:56:00;;;;;;;0.70;0.60;;;;;;;18.41;100.00;56322.50;5049683;28;20796;-73
2021/07/17 00:58:31;;;;;;;0.70;0.70;;;;;;;18.40;100.00;56986.56;5011679;28;20439;-74
2021/07/17 01:00:59;;;;;;;0.70;0.60;;;;;;;18.45;100.00;56326.50;5045973;28;20542;-73
2021/07/17 01:03:28;;;;;;;0.70;0.70;;;;;;;18.45;100.00;55662.00;5048451;28;20832;-73
2021/07/17 01:05:55;;;;;;;0.70;0.70;;;;;;;18.42;100.00;55659.03;5049471;28;20422;-74
2021/07/17 01:08:22;;;;;;;0.80;0.80;;;;;;;18.44;100.00;56325.47;5045309;28;20460;-73
2021/07/17 01:10:50;;;;;;;0.70;0.70;;;;;;;18.40;100.00;55989.25;5037616;28;20486;-73
2021/07/17 01:13:16;;;;;;;0.80;0.70;;;;;;;18.45;100.00;55994.22;5030634;28;20430;-73
2021/07/17 01:15:46;;;;;;;0.70;0.70;;;;;;;18.48;100.00;55000.53;5049086;28;20481;-74
2021/07/17 01:18:13;;;;;;;0.70;0.60;;;;;;;18.50;100.00;55002.97;5030819;28;20453;-73
2021/07/17 01:20:40;;;;;;;0.70;0.67;;;;;;;18.48;100.00;55333.22;5048223;28;20928;-74
2021/07/17 01:23:09;;;;;;;0.70;0.60;;;;;;;18.40;100.00;55324.88;5046322;28;20460;-74
2021/07/17 01:25:36;;;;;;;0.80;0.70;;;;;;;18.40;100.00;54992.75;5048125;28;20430;-74
2021/07/17 01:28:04;;;;;;;0.70;0.60;;;;;;;18.39;100.00;54991.78;5026939;28;20962;-74
2021/07/17 01:30:33;;;;;;;0.80;0.80;;;;;;;18.39;100.00;55656.56;5043279;28;20480;-73
2021/07/17 01:33:01;;;;;;;0.77;0.70;;;;;;;18.41;100.00;55658.03;5030584;28;20449;-74
2021/07/17 01:35:48;;;;;;;0.70;0.70;;;;;;;18.39;100.00;55656.09;5047219;28;20464;-74
2021/07/17 01:38:17;;;;;;;0.70;0.70;;;;;;;18.39;100.00;55656.56;5047389;28;20502;-74
2021/07/17 01:40:46;;;;;;;0.70;0.60;;;;;;;18.35;100.00;55984.81;5028431;28;20472;-74
2021/07/17 01:43:14;;;;;;;0.70;0.67;;;;;;;18.34;100.00;56316.03;5027911;28;20526;-73
2021/07/17 01:45:42;;;;;;;0.70;0.60;;;;;;;18.38;100.00;56319.53;5033545;28;20764;-74
2021/07/17 01:48:10;;;;;;;0.70;0.60;;;;;;;18.38;100.00;55987.28;5048121;28;20438;-73
2021/07/17 01:50:38;;;;;;;0.70;0.60;;;;;;;18.37;100.00;55986.78;5029900;28;20436;-74
2021/07/17 01:53:06;;;;;;;0.70;0.60;;;;;;;18.32;100.00;56314.53;5027479;28;20824;-74
2021/07/17 01:55:35;;;;;;;0.70;0.60;;;;;;;18.34;100.00;56648.78;5026910;28;20452;-73
2021/07/17 01:58:03;;;;;;;0.70;0.60;;;;;;;18.32;100.00;55981.84;5031242;28;20492;-74
2021/07/17 02:00:30;;;;;;;0.80;0.70;;;;;;;18.33;100.00;55983.31;5038784;28;20536;-73
2021/07/17 02:02:57;;;;;;;0.70;0.60;;;;;;;18.32;100.00;55650.16;5041548;28;20456;-73
2021/07/17 02:05:26;;;;;;;0.70;0.60;;;;;;;18.34;100.00;55652.16;5041012;28;20960;-73
2021/07/17 02:07:54;;;;;;;0.70;0.60;;;;;;;18.31;100.00;54984.97;5024602;28;20463;-73
2021/07/17 02:10:22;;;;;;;0.70;0.60;;;;;;;18.32;100.00;54985.44;5033587;28;20957;-74
2021/07/17 02:12:59;;;;;;;0.77;0.70;;;;;;;18.29;100.00;54650.97;5037803;28;20883;-74
2021/07/17 02:15:26;;;;;;;0.80;0.70;;;;;;;18.28;100.00;53986.00;5027238;28;20419;-74
2021/07/17 02:17:55;;;;;;;0.70;0.60;;;;;;;18.29;100.00;53323.06;5027789;28;20949;-74
2021/07/17 02:20:23;;;;;;;0.70;0.60;;;;;;;18.30;100.00;52659.81;5046912;28;20452;-73
2021/07/17 02:22:50;;;;;;;0.77;0.73;;;;;;;18.37;100.00;52002.19;5047080;28;20441;-74
2021/07/17 02:25:17;;;;;;;0.70;0.60;;;;;;;18.34;100.00;52000.34;5046861;28;20498;-74
2021/07/17 02:27:45;;;;;;;0.73;0.70;;;;;;;18.37;100.00;51338.63;5048317;28;20517;-74
2021/07/17 02:30:14;;;;;;;0.70;0.63;;;;;;;18.38;100.00;51007.81;5046945;28;20497;-73
2021/07/17 02:32:41;;;;;;;0.70;0.70;;;;;;;18.37;100.00;50675.19;5043037;28;20440;-73
2021/07/17 02:35:08;;;;;;;0.80;0.70;;;;;;;18.39;100.00;50345.78;5027648;28;21027;-74
2021/07/17 02:37:35;;;;;;;0.70;0.70;;;;;;;18.37;100.00;50011.88;5026200;28;20526;-73
2021/07/17 02:40:03;;;;;;;0.70;0.70;;;;;;;18.43;100.00;49685.59;5040579;28;20487;-73
2021/07/17 02:42:30;;;;;;;0.70;0.70;;;;;;;18.39;100.00;49019.38;5045934;28;20506;-73
2021/07/17 02:44:57;;;;;;;0.70;0.60;;;;;;;18.36;100.00;49016.75;5045828;28;20577;-73
2021/07/17 02:47:25;;;;;;;0.70;0.60;;;;;;;18.38;100.00;48355.09;5039429;28;20439;-73
2021/07/17 02:49:52;;;;;;;0.70;0.70;;;;;;;18.38;100.00;48023.63;5034224;28;20467;-73
2021/07/17 02:52:19;;;;;;;0.70;0.67;;;;;;;18.39;100.00;47693.50;5035545;28;20482;-73
2021/07/17 02:54:46;;;;;;;0.77;0.70;;;;;;;18.35;100.00;47359.16;5047534;28;20440;-73
2021/07/17 02:57:13;;;;;;;0.80;0.70;;;;;;;18.33;100.00;46694.81;5046274;28;20426;-72
2021/07/17 02:59:40;;;;;;;0.70;0.70;;;;;;;18.37;100.00;46697.34;5029293;28;20524;-73
2021/07/17 03:02:07;;;;;;;0.70;0.70;;;;;;;18.38;100.00;46036.06;5043909;28;20430;-73
2021/07/17 03:04:36;;;;;;;0.70;0.70;;;;;;;18.42;100.00;46038.94;5036647;28;20529;-72
2021/07/17 03:07:03;;;;;;;0.80;0.70;;;;;;;18.42;100.00;46038.94;5025672;28;20474;-72
2021/07/17 03:09:30;;;;;;;0.70;0.70;;;;;;;18.41;100.00;45376.09;5025665;28;20442;-73
2021/07/17 03:11:58;;;;;;;1.27;1.17;;;;;;;18.43;100.00;45377.31;5041469;28;20472;-73
2021/07/17 03:14:25;;;;;;;0.70;0.60;;;;;;;18.43;100.00;45046.13;5027512;28;20424;-74
2021/07/17 03:16:53;;;;;;;0.80;0.80;;;;;;;18.39;100.00;45042.91;5025606;28;20437;-73
2021/07/17 03:19:20;;;;;;;0.70;0.63;;;;;;;18.39;100.00;45042.91;5042318;28;20452;-73
2021/07/17 03:21:48;;;;;;;0.70;0.60;;;;;;;18.38;100.00;45042.09;5046268;28;20448;-73
2021/07/17 03:24:15;;;;;;;0.70;0.60;;;;;;;18.35;100.00;45040.47;5045786;28;20566;-73
2021/07/17 03:26:42;;;;;;;0.80;0.73;;;;;;;18.44;100.00;44715.78;5046696;28;20472;-73
2021/07/17 03:29:09;;;;;;;0.70;0.70;;;;;;;18.33;100.00;44376.69;5028267;28;20523;-73
2021/07/17 03:31:36;;;;;;;0.70;0.60;;;;;;;18.32;100.00;44044.88;5022459;28;20559;-73
2021/07/17 03:34:03;;;;;;;1.20;1.10;;;;;;;18.34;100.00;43715.44;5029539;28;20543;-73
2021/07/17 03:36:31;;;;;;;0.70;0.60;;;;;;;18.31;100.00;43712.69;5026419;28;20497;-73
2021/07/17 03:38:59;;;;;;;0.70;0.60;;;;;;;18.42;100.00;43720.97;5029110;28;20463;-73
2021/07/17 03:41:26;;;;;;;0.70;0.70;;;;;;;18.46;100.00;43724.09;5028018;28;20419;-72
2021/07/17 03:43:53;;;;;;;0.70;0.70;;;;;;;18.38;100.00;43717.81;5027204;28;20426;-73
2021/07/17 03:46:20;;;;;;;0.70;0.70;;;;;;;18.34;100.00;43384.09;5024052;28;20453;-74
2021/07/17 03:48:47;;;;;;;0.70;0.67;;;;;;;18.35;100.00;43715.84;5025556;28;20455;-73
2021/07/17 03:51:13;;;;;;;0.70;0.60;;;;;;;18.34;100.00;43384.47;5046567;28;20460;-73
2021/07/17 03:53:40;;;;;;;0.70;0.70;;;;;;;18.38;100.00;43386.81;5030054;28;20483;-73
2021/07/17 03:56:09;;;;;;;0.70;0.70;;;;;;;18.37;100.00;43055.09;5030272;28;20999;-73
2021/07/17 03:58:35;;;;;;;0.70;0.60;;;;;;;18.28;100.00;43048.88;5031294;28;20463;-73
2021/07/17 04:01:02;;;;;;;0.70;0.67;;;;;;;18.34;100.00;42722.63;5031293;28;20857;-72
2021/07/17 04:03:32;;;;;;;0.70;0.60;;;;;;;18.33;100.00;42390.97;5048888;28;20451;-73
2021/07/17 04:06:00;;;;;;;0.80;0.70;;;;;;;18.35;100.00;42061.28;5049217;28;20964;-72
2021/07/17 04:08:27;;;;;;;0.70;0.70;;;;;;;18.48;100.00;42070.78;5050741;28;20423;-73
2021/07/17 04:10:54;;;;;;;0.70;0.60;;;;;;;18.42;100.00;42066.63;5049062;28;20475;-73
2021/07/17 04:13:22;;;;;;;0.70;0.60;;;;;;;18.52;100.00;41742.91;5049654;28;20498;-73
2021/07/17 04:15:49;;;;;;;0.70;0.70;;;;;;;18.54;100.00;42075.72;5049519;28;20462;-73
2021/07/17 04:18:16;;;;;;;0.70;0.60;;;;;;;18.51;100.00;42073.06;5049560;28;20448;-73
2021/07/17 04:20:43;;;;;;;0.70;0.60;;;;;;;18.60;100.00;41748.97;5047986;28;20449;-73
2021/07/17 04:23:10;;;;;;;0.80;0.70;;;;;;;18.56;100.00;42076.88;5047631;28;20501;-73
2021/07/17 04:25:37;;;;;;;0.70;0.60;;;;;;;18.58;100.00;41747.44;5049291;28;20452;-73
2021/07/17 04:28:04;;;;;;;0.80;0.70;;;;;;;18.64;100.00;42082.94;5049198;28;20919;-73
2021/07/17 04:30:33;;;;;;;0.70;0.70;;;;;;;18.68;100.00;42416.63;5039079;28;21238;-73
2021/07/17 04:33:00;;;;;;;0.70;0.60;;;;;;;18.72;100.00;42420.09;5029410;28;20451;-73
2021/07/17 04:35:27;;;;;;;0.70;0.70;;;;;;;18.87;100.00;42410.13;5028329;28;20477;-73
2021/07/17 04:37:54;;;;;;;0.70;0.70;;;;;;;18.86;100.00;41768.22;5027473;28;20499;-73
2021/07/17 04:40:21;;;;;;;0.70;0.60;;;;;;;18.73;100.00;41758.78;5034761;28;20476;-73
2021/07/17 04:42:48;;;;;;;0.70;0.60;;;;;;;18.78;100.00;42093.63;5046063;28;20511;-73
2021/07/17 04:45:15;;;;;;;0.70;0.70;;;;;;;18.85;100.00;41436.03;5018489;28;20472;-72
2021/07/17 04:47:44;;;;;;;0.70;0.60;;;;;;;18.92;100.00;39021.22;5040632;28;20501;-73
2021/07/17 04:50:12;;;;;;;0.70;0.60;;;;;;;18.89;100.00;36807.88;5048327;28;20431;-73
2021/07/17 04:52:39;;;;;;;0.70;0.70;;;;;;;18.73;100.00;34513.03;5048538;28;20463;-73
2021/07/17 04:55:06;;;;;;;0.70;0.60;;;;;;;18.67;100.00;34026.75;5029908;28;20810;-73
2021/07/17 04:57:33;;;;;;;0.70;0.70;;;;;;;18.72;100.00;32990.34;5048888;28;20438;-73
2021/07/17 05:00:00;;;;;;;0.70;0.63;;;;;;;18.68;100.00;30216.63;5036113;28;20432;-73
2021/07/17 05:02:28;;;;;;;0.70;0.67;;;;;;;18.66;100.00;29190.13;5047425;28;20431;-74
2021/07/17 05:04:56;;;;;;;0.73;0.70;;;;;;;18.61;100.00;28739.22;5047845;28;21017;-73
2021/07/17 05:07:23;;;;;;;0.70;0.60;;;;;;;18.79;100.00;25311.53;5049400;28;20939;-73
2021/07/17 05:09:50;;;;;;;0.70;0.60;;;;;;;18.80;100.00;22566.94;5049333;28;20445;-73
2021/07/17 05:12:17;;;;;;;0.80;0.70;;;;;;;18.67;100.00;19917.06;5046145;28;20526;-74
2021/07/17 05:14:44;;;;;;;0.80;0.80;;;;;;;18.58;100.00;20604.50;5047396;28;20452;-74
2021/07/17 05:17:11;;;;;;;1.33;1.23;;;;;;;18.77;100.00;22071.97;5048074;28;20454;-73
2021/07/17 05:19:38;;;;;;;0.73;0.70;;;;;;;18.71;100.00;18978.34;5048758;28;20463;-73
2021/07/17 05:22:06;;;;;;;1.07;1.00;;;;;;;18.71;100.00;16411.25;5049006;28;20459;-72
2021/07/17 05:24:33;;;;;;;0.80;0.70;;;;;;;18.94;100.00;12085.50;5045575;28;20449;-73
2021/07/17 05:27:00;;;;;;;0.70;0.60;;;;;;;18.87;100.00;4368.63;5046790;28;20464;-73
2021/07/17 05:29:27;;;;;;;0.70;0.70;;;;;;;18.90;100.00;-1615.59;5028553;28;20473;-73
2021/07/17 05:31:54;;;;;;;0.70;0.60;;;;;;;18.91;100.00;-2480.97;5045051;28;20464;-73
2021/07/17 05:34:21;;;;;;;0.70;0.63;;;;;;;19.05;100.00;-2827.72;5043732;28;20814;-72
2021/07/17 05:36:48;;;;;;;0.70;0.70;;;;;;;19.15;100.00;-7730.91;5034835;28;20465;-73
2021/07/17 05:39:17;;;;;;;0.70;0.70;;;;;;;19.26;100.00;-13733.22;5028859;28;20453;-73
2021/07/17 05:41:45;;;;;;;0.70;0.67;;;;;;;19.26;100.00;-17762.00;5027695;28;20440;-73
2021/07/17 05:44:12;;;;;;;0.73;0.70;;;;;;;19.27;100.00;-19693.50;5027958;28;20449;-73
2021/07/17 05:46:39;;;;;;;1.17;1.07;;;;;;;19.39;100.00;-21207.22;5042296;28;20431;-73
2021/07/17 05:49:06;;;;;;;0.70;0.60;;;;;;;19.41;100.00;-21207.75;5046024;28;20438;-73
2021/07/17 05:51:33;;;;;;;1.10;1.00;;;;;;;19.62;100.00;-21213.50;5045684;28;20505;-72
2021/07/17 05:54:00;;;;;;;0.70;0.60;;;;;;;19.94;100.00;-21221.97;5030960;28;20557;-72
2021/07/17 05:56:29;;;;;;;0.70;0.60;;;;;;;19.76;100.00;-21217.31;5048348;28;20495;-73
2021/07/17 05:58:56;;;;;;;0.80;0.70;;;;;;;19.66;100.00;-21214.59;5047339;28;20452;-73
2021/07/17 06:01:23;;;;;;;0.70;0.70;;;;;;;19.64;100.00;-21214.06;5048458;28;20505;-72
2021/07/17 06:03:51;;;;;;;0.70;0.70;;;;;;;19.60;100.00;-21212.94;5047637;28;20422;-72
2021/07/17 06:06:19;;;;;;;0.70;0.60;;;;;;;19.75;100.00;-21217.06;5046122;28;20450;-72
2021/07/17 06:08:45;;;;;;;0.70;0.60;;;;;;;19.73;100.00;-21216.50;5046698;28;20423;-74
2021/07/17 06:11:13;;;;;;;0.70;0.67;;;;;;;19.77;100.00;-21217.47;5029607;28;20460;-73
2021/07/17 06:13:41;;;;;;;0.70;0.70;;;;;;;19.71;100.00;-21215.97;5043292;28;20454;-74
2021/07/17 06:16:09;;;;;;;0.70;0.60;;;;;;;19.66;100.00;-21214.59;5046596;28;20542;-73
2021/07/17 06:18:36;;;;;;;0.80;0.70;;;;;;;19.89;100.00;-21220.63;5048065;28;20419;-73
2021/07/17 06:21:03;;;;;;;0.70;0.60;;;;;;;19.88;100.00;-21220.47;5047348;28;20467;-74
2021/07/17 06:23:30;;;;;;;0.70;0.60;;;;;;;19.67;100.00;-21214.88;5047577;28;20938;-74
2021/07/17 06:25:57;;;;;;;0.70;0.70;;;;;;;19.70;100.00;-21215.69;5045840;28;20488;-73
2021/07/17 06:28:24;;;;;;;0.70;0.70;;;;;;;19.64;100.00;-21213.91;5046110;28;20542;-73
2021/07/17 06:30:52;;;;;;;0.70;0.60;;;;;;;19.68;100.00;-21215.16;5046860;28;20448;-73
2021/07/17 06:33:20;;;;;;;0.73;0.70;;;;;;;19.93;100.00;-21221.69;5046423;28;20905;-74
2021/07/17 06:35:49;;;;;;;0.70;0.60;;;;;;;20.06;100.00;-21225.25;5041202;28;20429;-74
2021/07/17 06:38:16;;;;;;;0.70;0.60;;;;;;;20.10;100.00;-21226.34;5044305;28;20892;-74
2021/07/17 06:40:43;;;;;;;0.70;0.70;;;;;;;20.32;100.00;-21232.09;5048032;28;20539;-73
2021/07/17 06:43:10;;;;;;;1.53;1.43;;;;;;;20.33;100.00;-21232.50;5032409;28;20851;-74
2021/07/17 06:45:37;;;;;;;1.20;1.10;;;;;;;20.30;100.00;-21231.69;5033980;28;20547;-74
2021/07/17 06:48:07;;;;;;;0.70;0.70;;;;;;;20.49;100.00;-21236.88;5044691;28;20467;-75
2021/07/17 06:50:33;;;;;;;0.70;0.60;;;;;;;20.50;100.00;-21237.00;5029975;28;20552;-74
2021/07/17 06:53:02;;;;;;;0.70;0.63;;;;;;;20.32;100.00;-21232.09;5027708;28;20557;-74
2021/07/17 06:55:32;;;;;;;0.70;0.60;;;;;;;20.43;100.00;-21235.09;5040337;28;20472;-74
2021/07/17 06:58:00;;;;;;;0.77;0.67;;;;;;;20.28;100.00;-21231.13;5045787;28;20444;-74
2021/07/17 07:00:27;;;;;;;0.80;0.67;;;;;;;20.20;100.00;-21229.06;5046810;28;20468;-75
2021/07/17 07:02:54;;;;;;;0.70;0.60;;;;;;;20.35;100.00;-21233.03;5046364;28;21084;-75
2021/07/17 07:05:22;;;;;;;0.70;0.63;;;;;;;20.28;100.00;-21231.25;5025860;28;20491;-74
2021/07/17 07:07:49;;;;;;;0.70;0.63;;;;;;;20.51;100.00;-21237.28;5025944;28;20492;-75
2021/07/17 07:10:16;;;;;;;0.70;0.60;;;;;;;20.72;100.00;-21242.88;5033175;28;21155;-72
2021/07/17 07:12:44;;;;;;;1.03;1.03;;;;;;;20.83;100.00;-21245.75;5045913;28;20476;-74
2021/07/17 07:15:14;;;;;;;0.73;0.67;;;;;;;20.60;100.00;-21239.72;5045660;28;21055;-73
2021/07/17 07:17:41;;;;;;;0.80;0.80;;;;;;;20.59;100.00;-21239.31;5046308;28;20503;-74
2021/07/17 07:20:10;;;;;;;0.70;0.60;;;;;;;20.77;100.00;-21244.25;5045158;28;20456;-73
2021/07/17 07:22:38;;;;;;;0.70;0.60;;;;;;;20.72;100.00;-21243.00;5026149;28;20861;-73
2021/07/17 07:25:07;;;;;;;0.80;0.60;;;;;;;20.49;100.00;-21236.72;5047247;28;20467;-74
2021/07/17 07:27:36;;;;;;;0.70;0.60;;;;;;;20.71;100.00;-21242.75;5049953;28;20471;-74
2021/07/17 07:30:04;;;;;;;0.70;0.60;;;;;;;20.68;100.00;-21241.91;5050660;28;20525;-74
2021/07/17 07:32:31;;;;;;;0.70;0.60;;;;;;;21.04;100.00;-21251.47;5033323;28;20506;-74
2021/07/17 07:34:58;;;;;;;0.77;0.70;;;;;;;20.65;100.00;-21241.09;5049497;28;21010;-74
2021/07/17 07:37:27;;;;;;;0.80;0.70;;;;;;;20.86;100.00;-21246.56;5045278;28;20513;-75
2021/07/17 07:39:56;;;;;;;0.70;0.60;;;;;;;20.95;100.00;-21249.16;5048702;28;20464;-74
2021/07/17 07:42:23;;;;;;;0.70;0.60;;;;;;;21.15;100.00;-21254.47;5047715;28;20503;-73
2021/07/17 07:44:50;;;;;;;0.70;0.60;;;;;;;21.02;100.00;-21250.78;5050736;28;20447;-74
2021/07/17 07:47:18;;;;;;;0.70;0.60;;;;;;;21.06;100.00;-21252.03;5050688;28;20490;-74
2021/07/17 07:49:54;;;;;;;0.70;0.60;;;;;;;21.09;100.00;-21252.84;5048588;28;20463;-73
2021/07/17 07:52:21;;;;;;;0.80;0.80;;;;;;;21.32;100.00;-21258.84;5050968;28;20456;-71
2021/07/17 07:54:47;;;;;;;0.70;0.60;;;;;;;21.04;100.00;-21251.34;5042263;28;20540;-74
2021/07/17 07:57:16;;;;;;;0.70;0.60;;;;;;;20.85;100.00;-21246.28;5030663;28;20491;-74
2021/07/17 07:59:43;;;;;;;0.80;0.60;;;;;;;20.73;100.00;-21243.16;5029111;28;20453;-74
2021/07/17 08:02:10;;;;;;;0.70;0.60;;;;;;;20.90;100.00;-21247.66;5028348;28;20472;-75
2021/07/17 08:04:37;;;;;;;0.70;0.60;;;;;;;21.28;100.00;-21257.75;5030564;28;20832;-74
2021/07/17 08:07:04;;;;;;;0.70;0.60;;;;;;;21.39;100.00;-21260.75;5029209;28;20842;-74
2021/07/17 08:09:31;;;;;;;0.70;0.60;;;;;;;21.53;100.00;-21264.56;5028785;28;20932;-73
2021/07/17 08:12:01;;;;;;;0.70;0.60;;;;;;;21.19;100.00;-21255.44;5038076;28;20467;-74
2021/07/17 08:14:30;;;;;;;0.70;0.60;;;;;;;21.04;100.00;-21251.47;5049490;28;20522;-73
2021/07/17 08:17:02;;;;;;;0.70;0.60;;;;;;;21.40;100.00;-21261.16;5047977;28;20829;-73
2021/07/17 08:19:29;;;;;;;0.80;0.70;;;;;;;21.67;100.00;-21268.38;5048054;28;20470;-73
2021/07/17 08:21:56;;;;;;;0.70;0.60;;;;;;;21.22;100.00;-21256.38;5049314;28;20454;-73
2021/07/17 08:24:24;;;;;;;0.80;0.70;;;;;;;21.15;100.00;-21254.34;5032969;28;20521;-73
2021/07/17 08:26:51;;;;;;;0.70;0.60;;;;;;;20.81;100.00;-21245.34;5050191;28;20513;-73
2021/07/17 08:29:18;;;;;;;1.37;1.27;;;;;;;21.04;100.00;-21251.47;5039102;28;21477;-73
2021/07/17 08:31:46;;;;;;;0.70;0.60;;;;;;;20.90;100.00;-21247.66;5037849;28;20813;-73
2021/07/17 08:34:13;;;;;;;0.80;0.70;;;;;;;21.26;100.00;-21257.19;5047428;28;20529;-73
2021/07/17 08:36:40;;;;;;;0.90;0.90;;;;;;;21.20;100.00;-21255.84;5031300;28;20461;-73
2021/07/17 08:39:08;;;;;;;0.70;0.60;;;;;;;21.11;100.00;-21253.38;5048404;28;20448;-73
2021/07/17 08:41:39;;;;;;;0.70;0.60;;;;;;;21.39;100.00;-21260.75;5049537;28;20488;-72
2021/07/17 08:44:07;;;;;;;0.70;0.60;;;;;;;21.51;100.00;-21264.03;5048986;28;20447;-72
2021/07/17 08:46:37;;;;;;;2.10;1.33;;;;;;;21.34;100.00;-21259.38;5030045;28;20567;-72
2021/07/17 08:49:06;;;;;;;0.70;0.60;;;;;;;21.13;100.00;-21253.78;5049408;28;20444;-73
2021/07/17 08:51:33;;;;;;;0.70;0.70;;;;;;;21.51;100.00;-21264.03;5049026;28;20947;-73
2021/07/17 08:54:01;;;;;;;0.70;0.60;;;;;;;21.62;100.00;-21266.88;5049545;28;21022;-74
2021/07/17 08:56:30;;;;;;;0.70;0.70;;;;;;;21.44;100.00;-21262.13;5049129;28;20466;-72
2021/07/17 08:58:56;;;;;;;0.70;0.60;;;;;;;21.64;100.00;-21267.56;5048485;28;20518;-73
2021/07/17 09:01:23;;;;;;;0.70;0.60;;;;;;;21.69;100.00;-21268.94;5049026;28;20505;-73
2021/07/17 09:03:51;;;;;;;0.70;0.60;;;;;;;21.74;100.00;-21270.16;5047836;28;20448;-73
2021/07/17 09:06:19;;;;;;;0.70;0.60;;;;;;;21.69;100.00;-21268.94;5048806;28;20527;-73
2021/07/17 09:08:48;;;;;;;0.80;0.80;;;;;;;21.83;100.00;-21272.47;5047766;28;20756;-73
2021/07/17 09:11:15;;;;;;;1.23;1.13;;;;;;;21.93;100.00;-21275.34;5049061;28;20498;-73
2021/07/17 09:13:42;;;;;;;0.70;0.60;;;;;;;22.32;100.00;-21285.69;5046440;28;20488;-72
2021/07/17 09:16:10;;;;;;;0.70;0.60;;;;;;;22.33;100.00;-21285.97;5044157;28;20539;-73
2021/07/17 09:18:40;;;;;;;0.70;0.60;;;;;;;22.27;100.00;-21284.19;5037069;28;20921;-73
2021/07/17 09:21:12;;;;;;;0.70;0.50;;;;;;;22.27;100.00;-21284.31;5035268;28;20865;-73
2021/07/17 09:23:43;;;;;;;0.70;0.60;;;;;;;22.38;100.00;-21287.19;5027171;28;20810;-73
2021/07/17 09:26:13;;;;;;;0.70;0.60;;;;;;;22.74;100.00;-21296.84;5024001;28;21027;-72
2021/07/17 09:28:40;;;;;;;0.90;0.80;;;;;;;22.48;100.00;-21289.78;5043361;28;20549;-72
2021/07/17 09:31:08;;;;;;;0.70;0.60;;;;;;;22.60;100.00;-21293.19;5040476;28;20957;-73
2021/07/17 09:33:36;;;;;;;0.70;0.60;;;;;;;22.93;100.00;-21301.88;5030756;28;20908;-73
2021/07/17 09:36:03;;;;;;;0.70;0.60;;;;;;;23.29;100.00;-21311.41;5035411;28;20482;-73
2021/07/17 09:38:32;;;;;;;0.70;0.70;;;;;;;23.25;100.00;-21310.47;5026696;28;20502;-73
2021/07/17 09:41:04;;;;;;;0.70;0.60;;;;;;;23.21;100.00;-21309.38;5039874;28;20456;-72
2021/07/17 09:43:36;;;;;;;1.57;1.20;;;;;;;22.83;100.00;-21299.31;5048978;28;20450;-73
2021/07/17 09:46:19;;;;;;;0.70;0.60;;;;;;;22.55;100.00;-21291.69;5043738;28;20503;-73
2021/07/17 09:48:49;;;;;;;0.70;0.60;;;;;;;22.44;100.00;-21288.81;5048327;28;21102;-73
2021/07/17 09:51:20;;;;;;;0.70;0.60;;;;;;;22.89;100.00;-21300.78;5047303;28;20924;-73
2021/07/17 09:53:49;;;;;;;0.70;0.60;;;;;;;23.18;100.00;-21308.41;5030108;28;20983;-72
2021/07/17 09:56:18;;;;;;;0.70;0.50;;;;;;;22.80;100.00;-21298.50;5026734;28;20467;-73
2021/07/17 09:58:46;;;;;;;0.70;0.60;;;;;;;23.13;100.00;-21307.34;5027889;28;20464;-72
2021/07/17 10:01:18;;;;;;;0.70;0.57;;;;;;;23.08;100.00;-21305.84;5027730;28;20453;-72
2021/07/17 10:03:48;;;;;;;0.70;0.60;;;;;;;23.14;100.00;-21307.59;5027606;28;20803;-73
2021/07/17 10:06:28;;;;;;;0.70;0.60;;;;;;;23.24;100.00;-21310.06;5030979;28;20845;-72
2021/07/17 10:08:55;;;;;;;0.70;0.50;;;;;;;23.34;100.00;-21312.91;5036692;28;20461;-73
2021/07/17 10:11:25;;;;;;;0.70;0.57;;;;;;;23.22;100.00;-21309.50;5037885;28;20495;-73
2021/07/17 10:13:53;;;;;;;0.70;0.57;;;;;;;23.25;100.00;-21310.31;5028334;28;20476;-73
2021/07/17 10:16:22;;;;;;;0.70;0.50;;;;;;;23.52;100.00;-21317.66;5028086;28;20516;-73
2021/07/17 10:18:51;;;;;;;0.70;0.50;;;;;;;23.63;100.00;-21320.66;5027334;28;20445;-73
2021/07/17 10:21:20;;;;;;;0.70;0.60;;;;;;;24.21;100.00;-21336.00;5027381;28;20789;-72
2021/07/17 10:23:47;;;;;;;0.70;0.60;;;;;;;24.37;100.00;-21340.22;5033443;28;20471;-73
2021/07/17 10:26:15;;;;;;;0.70;0.60;;;;;;;25.06;100.00;-21358.53;5031697;28;20486;-73
2021/07/17 10:28:43;;;;;;;0.70;0.50;;;;;;;24.97;100.00;-21356.09;5041377;28;20458;-73
2021/07/17 10:31:10;;;;;;;0.70;0.50;;;;;;;25.49;100.00;-21370.06;5036991;28;20516;-73
2021/07/17 10:33:37;;;;;;;0.70;0.50;;;;;;;25.29;100.00;-21364.78;5039176;28;20471;-74
2021/07/17 10:36:10;;;;;;;0.70;0.50;;;;;;;25.34;100.00;-21366.00;5035488;28;20455;-73
2021/07/17 10:38:43;;;;;;;0.70;0.60;;;;;;;25.76;100.00;-21377.13;5037274;28;20453;-73
2021/07/17 10:41:13;;;;;;;0.80;0.60;;;;;;;25.73;100.00;-21376.31;5036202;28;20464;-73
2021/07/17 10:43:48;;;;;;;0.70;0.50;;;;;;;26.16;100.00;-21387.69;5035216;28;20464;-73
2021/07/17 10:46:30;;;;;;;0.70;0.60;;;;;;;26.26;100.00;-21390.38;5035358;28;20463;-73
2021/07/17 10:48:59;;;;;;;0.70;0.60;;;;;;;26.18;100.00;-21388.22;5037258;28;20496;-73
2021/07/17 10:51:33;;;;;;;0.70;0.50;;;;;;;26.48;100.00;-21396.22;5035778;28;21125;-73
2021/07/17 10:54:03;;;;;;;0.70;0.60;;;;;;;26.52;100.00;-21397.16;5033551;28;20562;-74
2021/07/17 10:56:48;;;;;;;0.70;0.53;;;;;;;26.91;100.00;-21407.56;5038309;28;20979;-74
2021/07/17 10:59:39;;;;;;;0.80;0.60;;;;;;;27.12;100.00;-21413.13;5036228;28;20453;-73
2021/07/17 11:02:07;;;;;;;0.70;0.50;;;;;;;27.94;100.00;-21435.00;5042146;28;21524;-74
2021/07/17 11:04:44;;;;;;;0.70;0.50;;;;;;;28.62;100.00;-21452.97;5045939;28;20460;-74
2021/07/17 11:07:32;;;;;;;0.70;0.50;;;;;;;28.40;100.00;-21447.16;5046374;28;20463;-73
2021/07/17 11:10:04;;;;;;;0.70;0.50;;;;;;;27.75;100.00;-21429.88;5046922;28;20493;-74
2021/07/17 11:12:33;;;;;;;0.70;0.50;;;;;;;27.63;100.00;-21426.78;5047316;28;20514;-72
2021/07/17 11:15:45;;;;;;;0.70;0.60;;;;;;;26.90;100.00;-21407.44;5044028;28;21057;-73
2021/07/17 11:18:39;;;;;;;0.70;0.50;;;;;;;26.93;100.00;-21408.25;5045881;28;20544;-74
2021/07/17 11:21:09;;;;;;;0.80;0.67;;;;;;;28.02;100.00;-21436.91;5045013;28;20966;-73
2021/07/17 11:23:42;;;;;;;0.70;0.50;;;;;;;27.92;100.00;-21434.34;5046409;28;20455;-73
2021/07/17 11:26:16;;;;;;;0.70;0.50;;;;;;;28.46;100.00;-21448.50;5045625;28;20979;-72
2021/07/17 11:28:57;;;;;;;0.70;0.53;;;;;;;27.97;100.00;-21435.56;5047995;28;20448;-73